Terminal Aerodrome Forecast
Issued by NWS Grand Forks, ND

Home | Current Version | Previous Version | Graphics & Text | Print | Product List | Glossary On
Versions: 1 2 3 4 5 6 7 8 9 10 11 12 13
000
FTUS43 KFGF 291139
TAFGFK
TAF
KGFK 291139Z 2912/3012 27023G33KT P6SM BKN035
     FM291700 28025G35KT P6SM SCT040
     FM300000 31016KT P6SM SKC=

USA.gov is the U.S. government's official web portal to all federal, state and local government web resources and services.